createdAt,value
2023-01-13T00:02:30.362Z,1.90
2023-01-13T00:07:32.214Z,1.50
2023-01-13T00:12:34.052Z,1.92
2023-01-13T00:17:36.034Z,2.90
2023-01-13T00:22:37.880Z,2.10
2023-01-13T00:27:39.704Z,2.13
2023-01-13T00:32:41.503Z,2.42
2023-01-13T00:37:43.302Z,2.10
2023-01-13T00:42:45.104Z,3.55
2023-01-13T00:47:46.896Z,2.50
2023-01-13T00:52:48.701Z,2.58
2023-01-13T00:57:50.595Z,3.63
2023-01-13T01:02:52.406Z,3.15
2023-01-13T01:07:54.248Z,4.07
2023-01-13T01:12:56.064Z,3.42
2023-01-13T01:17:57.867Z,3.72
2023-01-13T01:22:59.671Z,3.88
2023-01-13T01:28:01.505Z,4.20
2023-01-13T01:33:03.395Z,2.42
2023-01-13T01:38:05.226Z,2.40
2023-01-13T01:43:14.145Z,3.47
2023-01-13T01:48:15.961Z,2.75
2023-01-13T01:53:19.877Z,3.22
2023-01-13T01:58:24.265Z,3.17
2023-01-13T02:03:26.252Z,2.03
2023-01-13T02:08:28.360Z,2.80
2023-01-13T02:13:30.286Z,3.00
2023-01-13T02:18:50.294Z,3.22
2023-01-13T02:24:07.404Z,3.33
2023-01-13T02:29:12.244Z,3.30
2023-01-13T02:34:18.906Z,4.60
2023-01-13T02:39:28.932Z,4.35
2023-01-13T02:44:38.439Z,3.50
2023-01-13T02:49:48.819Z,3.72
2023-01-13T02:55:10.901Z,3.25
2023-01-13T03:00:13.388Z,3.63
2023-01-13T03:05:15.993Z,3.13
2023-01-13T03:10:27.930Z,4.00
2023-01-13T03:15:32.742Z,3.28
2023-01-13T03:20:37.404Z,3.65
2023-01-13T03:26:02.474Z,3.60
2023-01-13T03:31:07.842Z,2.75
2023-01-13T03:36:11.394Z,3.22
2023-01-13T03:41:18.929Z,4.15
2023-01-13T03:46:34.744Z,3.15
2023-01-13T03:51:39.603Z,3.45
2023-01-13T03:56:43.522Z,3.58
2023-01-13T04:02:01.385Z,3.38
2023-01-13T04:07:09.242Z,4.63
2023-01-13T04:12:14.323Z,3.33
2023-01-13T04:17:16.350Z,3.78
2023-01-13T04:22:18.196Z,3.72
2023-01-13T04:27:20.041Z,3.25
2023-01-13T04:32:21.854Z,3.88
2023-01-13T04:37:23.670Z,3.05
2023-01-13T04:42:25.488Z,3.17
2023-01-13T04:47:27.321Z,3.08
2023-01-13T04:52:29.177Z,3.65
2023-01-13T04:57:32.368Z,4.50
2023-01-13T05:07:35.941Z,2.97
2023-01-13T05:12:37.764Z,3.17
2023-01-13T05:17:39.747Z,3.38
2023-01-13T05:22:41.615Z,3.03
2023-01-13T05:27:43.466Z,4.25
2023-01-13T05:32:45.290Z,3.55
2023-01-13T05:37:47.615Z,2.90
2023-01-13T05:43:00.283Z,2.90
2023-01-13T05:48:02.100Z,3.15
2023-01-13T05:53:04.629Z,2.95
2023-01-13T05:58:07.352Z,3.50
2023-01-13T06:03:09.688Z,2.92
2023-01-13T06:08:11.533Z,3.57
2023-01-13T06:13:13.355Z,3.10
2023-01-13T06:18:15.160Z,2.25
2023-01-13T06:23:16.956Z,2.63
2023-01-13T06:28:18.856Z,2.47
2023-01-13T06:33:23.754Z,2.20
2023-01-13T06:38:26.377Z,2.95
2023-01-13T06:43:28.258Z,1.92
2023-01-13T06:48:32.607Z,2.80
2023-01-13T06:53:34.416Z,2.63
2023-01-13T06:58:36.227Z,2.08
2023-01-13T07:03:38.040Z,2.10
2023-01-13T07:08:39.887Z,2.17
2023-01-13T07:13:41.805Z,2.95
2023-01-13T07:18:43.643Z,1.60
2023-01-13T07:23:46.085Z,1.77
2023-01-13T07:28:48.173Z,1.73
2023-01-13T07:33:50.047Z,1.73
2023-01-13T07:38:54.671Z,1.63
2023-01-13T07:43:56.789Z,1.45
2023-01-13T07:48:58.895Z,2.42
2023-01-13T07:54:00.750Z,2.58
2023-01-13T07:59:02.901Z,1.73
2023-01-13T08:04:04.770Z,1.88
2023-01-13T08:09:06.727Z,2.00
2023-01-13T08:14:08.686Z,2.17
2023-01-13T08:19:10.546Z,2.22
2023-01-13T08:24:12.378Z,2.50
2023-01-13T08:29:15.136Z,3.00
2023-01-13T08:34:17.087Z,1.92
2023-01-13T08:39:19.858Z,2.22
2023-01-13T08:44:28.857Z,2.40
2023-01-13T08:49:30.731Z,1.80
2023-01-13T08:54:32.751Z,2.08
2023-01-13T08:59:35.222Z,1.40
2023-01-13T09:04:37.467Z,2.30
2023-01-13T09:09:39.574Z,1.95
2023-01-13T09:14:41.798Z,2.15
2023-01-13T09:19:43.638Z,2.58
2023-01-13T09:24:45.947Z,2.33
2023-01-13T09:29:47.821Z,2.50
2023-01-13T09:34:49.660Z,2.63
2023-01-13T09:39:51.479Z,2.13
2023-01-13T09:44:59.708Z,2.42
2023-01-13T09:50:10.452Z,2.35
2023-01-13T09:55:16.998Z,2.00
2023-01-13T10:00:27.020Z,2.47
2023-01-13T10:05:37.256Z,2.10
2023-01-13T10:10:45.229Z,2.22
2023-01-13T10:15:54.457Z,2.60
2023-01-13T10:21:06.361Z,2.67
2023-01-13T10:26:18.246Z,3.10
2023-01-13T10:31:21.104Z,2.20
2023-01-13T10:36:23.087Z,2.20
2023-01-13T10:41:26.133Z,2.50
2023-01-13T10:46:29.064Z,2.78
2023-01-13T10:51:43.315Z,2.92
2023-01-13T10:56:45.286Z,1.90
2023-01-13T11:02:23.512Z,2.58
2023-01-13T11:07:38.353Z,2.10
2023-01-13T11:12:47.397Z,1.83
2023-01-13T11:17:54.007Z,2.50
2023-01-13T11:22:57.674Z,2.40
2023-01-13T11:28:02.496Z,2.25
2023-01-13T11:33:10.375Z,2.72
2023-01-13T11:38:17.930Z,2.30
2023-01-13T11:43:24.674Z,2.35
2023-01-13T11:48:28.250Z,2.63
2023-01-13T11:53:33.378Z,2.88
2023-01-13T11:58:51.069Z,2.88
2023-01-13T12:04:00.783Z,2.30
2023-01-13T12:09:20.945Z,1.83
2023-01-13T12:14:38.340Z,4.05
2023-01-13T12:19:45.373Z,3.17
2023-01-13T12:24:47.173Z,3.47
2023-01-13T12:29:51.488Z,2.60
2023-01-13T12:34:56.437Z,2.20
2023-01-13T12:39:58.409Z,1.95
2023-01-13T12:45:06.294Z,2.55
2023-01-13T12:50:23.749Z,2.67
2023-01-13T12:55:25.907Z,2.63
2023-01-13T13:00:36.688Z,2.13
2023-01-13T13:05:44.656Z,2.78
2023-01-13T13:10:59.263Z,2.67
2023-01-13T13:16:19.790Z,1.63
2023-01-13T13:21:21.891Z,1.95
2023-01-13T13:26:29.857Z,2.10
2023-01-13T13:31:43.821Z,1.90
2023-01-13T13:36:45.609Z,1.98
2023-01-13T13:41:50.635Z,1.30
2023-01-13T13:46:57.511Z,1.35
2023-01-13T13:52:02.222Z,2.47
2023-01-13T13:57:04.261Z,1.42
2023-01-13T14:02:14.974Z,1.83
2023-01-13T14:07:20.942Z,2.05
2023-01-13T14:12:24.414Z,2.10
2023-01-13T14:17:27.408Z,1.70
2023-01-13T14:22:29.588Z,2.10
2023-01-13T14:27:31.728Z,1.60
2023-01-13T14:32:35.673Z,1.23
2023-01-13T14:37:39.051Z,1.38
2023-01-13T14:42:42.147Z,1.60
2023-01-13T14:47:51.145Z,1.90
2023-01-13T14:52:53.462Z,1.83
2023-01-13T14:58:14.202Z,1.97
2023-01-13T15:03:17.502Z,1.52
2023-01-13T15:13:30.644Z,2.33
2023-01-13T15:18:32.755Z,2.53
2023-01-13T15:23:34.772Z,1.67
2023-01-13T15:28:38.059Z,2.10
2023-01-13T15:38:41.824Z,1.92
2023-01-13T15:43:43.669Z,1.70
2023-01-13T15:48:45.789Z,1.50
2023-01-13T15:53:53.077Z,1.40
2023-01-13T15:58:55.090Z,1.35
2023-01-13T16:03:57.185Z,1.40
2023-01-13T16:08:59.332Z,1.33
2023-01-13T16:14:01.185Z,1.50
2023-01-13T16:19:03.192Z,2.65
2023-01-13T16:24:05.339Z,1.42
2023-01-13T16:29:07.309Z,1.52
2023-01-13T16:34:09.316Z,1.10
2023-01-13T16:39:23.492Z,1.27
2023-01-13T16:44:25.656Z,1.02
2023-01-13T16:49:27.819Z,0.60
2023-01-13T16:54:29.626Z,0.75
2023-01-13T16:59:31.479Z,1.02
2023-01-13T17:04:33.537Z,1.15
2023-01-13T17:09:35.362Z,1.10
2023-01-13T17:14:37.213Z,1.45
2023-01-13T17:19:39.069Z,1.42
2023-01-13T17:24:42.033Z,1.45
2023-01-13T17:29:44.358Z,1.33
2023-01-13T17:34:46.428Z,1.70
2023-01-13T17:39:48.432Z,1.50
2023-01-13T17:44:50.507Z,1.58
2023-01-13T17:49:52.356Z,0.98
2023-01-13T17:54:54.482Z,1.65
2023-01-13T17:59:56.452Z,1.45
2023-01-13T18:04:58.275Z,1.77
2023-01-13T18:10:00.551Z,1.80
2023-01-13T18:15:02.549Z,1.90
2023-01-13T18:20:04.663Z,1.70
2023-01-13T18:25:11.449Z,1.58
2023-01-13T18:30:13.388Z,1.58
2023-01-13T18:35:15.417Z,2.05
2023-01-13T18:40:17.498Z,2.15
2023-01-13T18:45:24.062Z,1.75
2023-01-13T18:50:25.924Z,1.92
2023-01-13T18:55:28.134Z,1.75
2023-01-13T19:00:30.146Z,1.70
2023-01-13T19:05:32.017Z,1.70
2023-01-13T19:10:33.864Z,1.50
2023-01-13T19:15:36.606Z,1.70
2023-01-13T19:20:38.473Z,2.00
2023-01-13T19:25:40.593Z,1.75
2023-01-13T19:30:42.705Z,1.67
2023-01-13T19:35:44.830Z,1.42
2023-01-13T19:40:56.794Z,1.63
2023-01-13T19:45:58.956Z,1.70
2023-01-13T19:51:01.420Z,2.22
2023-01-13T19:56:03.274Z,2.33
2023-01-13T20:01:06.379Z,1.70
2023-01-13T20:06:08.340Z,1.50
2023-01-13T20:11:10.688Z,1.80
2023-01-13T20:16:12.832Z,1.60
2023-01-13T20:21:14.950Z,1.70
2023-01-13T20:26:17.171Z,1.67
2023-01-13T20:31:19.598Z,1.48
2023-01-13T20:36:30.691Z,1.70
2023-01-13T20:41:33.269Z,1.75
2023-01-13T20:46:35.389Z,1.75
2023-01-13T20:51:38.036Z,1.95
2023-01-13T20:56:40.035Z,1.30
2023-01-13T21:01:42.293Z,1.00
2023-01-13T21:06:44.469Z,1.33
2023-01-13T21:11:46.686Z,1.07
2023-01-13T21:16:52.089Z,1.42
2023-01-13T21:21:54.656Z,1.47
2023-01-13T21:26:56.965Z,1.67
2023-01-13T21:31:58.780Z,1.20
2023-01-13T21:37:01.221Z,2.35
2023-01-13T21:42:03.104Z,1.63
2023-01-13T21:47:12.717Z,1.40
2023-01-13T21:52:15.380Z,1.17
2023-01-13T21:57:17.392Z,1.15
2023-01-13T22:02:24.404Z,1.00
2023-01-13T22:07:27.496Z,1.00
2023-01-13T22:12:29.656Z,1.57
2023-01-13T22:17:31.825Z,1.20
2023-01-13T22:22:33.920Z,1.40
2023-01-13T22:27:36.477Z,2.00
2023-01-13T22:32:38.691Z,1.33
2023-01-13T22:37:40.780Z,1.30
2023-01-13T22:42:43.351Z,1.30
2023-01-13T22:47:45.159Z,1.90
2023-01-13T22:52:46.999Z,1.15
2023-01-13T22:57:48.801Z,1.65
2023-01-13T23:02:50.878Z,1.05
2023-01-13T23:07:52.860Z,1.08
2023-01-13T23:12:54.666Z,1.02
2023-01-13T23:17:56.504Z,1.35
2023-01-13T23:22:58.495Z,1.33
2023-01-13T23:28:00.349Z,1.35
2023-01-13T23:33:02.163Z,1.50
2023-01-13T23:38:04.092Z,1.80
2023-01-13T23:43:06.014Z,1.70
2023-01-13T23:48:07.981Z,2.20
2023-01-13T23:53:09.857Z,2.15
2023-01-13T23:58:11.701Z,2.17
